Time;durP1;ratioP1;P1;durP2;ratioP2;P2;SDS_P1;SDS_P2;PMS_P1;PMS_P2;Temp;Humidity;BMP_temperature;BMP_pressure;BME280_temperature;BME280_humidity;BME280_pressure;Samples;Min_cycle;Max_cycle;Signal;HPM_P1;HPM_P2
2022/09/07 00:01:21;;;;;;;12.65;9.57;;;;;;;20.30;81.29;69026.50;5022516;28;20431;-79
2022/09/07 00:03:46;;;;;;;10.50;7.75;;;;;;;;;;5030100;28;20065;-77
2022/09/07 00:06:12;;;;;;;7.55;6.40;;;;;;;20.28;79.31;69035.59;5026391;28;20054;-76
2022/09/07 00:08:39;;;;;;;6.97;5.13;;;;;;;20.55;76.47;69053.97;5031553;28;20083;-78
2022/09/07 00:11:06;;;;;;;7.22;4.72;;;;;;;;;;5031010;28;20064;-78
2022/09/07 00:13:33;;;;;;;12.77;3.65;;;;;;;;;;5029869;28;20488;-79
2022/09/07 00:16:02;;;;;;;5.75;4.00;;;;;;;;;;5032551;28;20048;-77
2022/09/07 00:18:27;;;;;;;5.32;3.30;;;;;;;19.83;87.03;68973.91;5020739;28;20045;-80
2022/09/07 00:21:01;;;;;;;8.40;3.40;;;;;;;19.63;89.32;68957.00;5031133;28;20045;-78
2022/09/07 00:23:28;;;;;;;6.18;3.63;;;;;;;19.56;89.64;68949.59;5031281;28;20064;-79
2022/09/07 00:25:58;;;;;;;6.70;4.18;;;;;;;19.43;91.59;68934.72;5030836;28;20041;-80
2022/09/07 00:28:24;;;;;;;10.48;4.50;;;;;;;19.46;91.46;68938.16;5031519;28;20708;-78
2022/09/07 00:30:49;;;;;;;6.05;4.28;;;;;;;19.38;92.03;68923.59;5030150;28;20260;-78
2022/09/07 00:33:14;;;;;;;6.05;4.35;;;;;;;19.30;93.20;68914.47;5031346;28;20042;-75
2022/09/07 00:35:40;;;;;;;8.35;5.07;;;;;;;;;;5028806;28;20607;-79
2022/09/07 00:38:06;;;;;;;8.98;5.05;;;;;;;19.26;96.23;68918.56;5028767;28;20044;-80
2022/09/07 00:40:32;;;;;;;9.82;5.20;;;;;;;19.05;96.97;68892.44;5032357;28;20042;-77
2022/09/07 00:42:57;;;;;;;6.93;5.82;;;;;;;19.05;98.51;68892.44;5029849;28;20050;-79
2022/09/07 00:45:23;;;;;;;9.50;5.72;;;;;;;18.99;99.76;68885.00;5031218;28;20041;-77
2022/09/07 00:48:20;;;;;;;11.10;5.90;;;;;;;18.89;100.00;68874.16;5032130;28;20429;-77
2022/09/07 00:50:49;;;;;;;8.65;5.70;;;;;;;;;;5026684;28;20041;-78
2022/09/07 00:53:14;;;;;;;;;;;;;;;;;;5026969;28;20555;-77
2022/09/07 00:55:43;;;;;;;14.33;6.60;;;;;;;18.80;100.00;68863.88;5022361;28;19917;-78
2022/09/07 00:58:09;;;;;;;9.50;5.60;;;;;;;18.83;100.00;68872.72;5026263;28;20511;-77
2022/09/07 01:00:35;;;;;;;10.13;6.03;;;;;;;18.65;100.00;68847.31;5023356;28;20303;-77
2022/09/07 01:03:01;;;;;;;10.45;5.57;;;;;;;;;;5021982;28;20041;-77
2022/09/07 01:05:33;;;;;;;9.98;5.50;;;;;;;18.62;100.00;68844.47;5025374;28;20174;-77
2022/09/07 01:07:59;;;;;;;8.88;5.32;;;;;;;18.61;100.00;68842.72;5023379;28;20810;-77
2022/09/07 01:10:26;;;;;;;8.82;4.78;;;;;;;;;;5023368;28;20041;-78
2022/09/07 01:12:52;;;;;;;8.85;4.93;;;;;;;18.52;100.00;68827.63;5025240;28;20037;-77
2022/09/07 01:15:21;;;;;;;8.95;4.65;;;;;;;18.47;100.00;68827.91;5024439;28;20045;-78
2022/09/07 01:17:46;;;;;;;7.38;4.50;;;;;;;;;;5025219;28;20393;-77
2022/09/07 01:20:26;;;;;;;5.13;3.60;;;;;;;;;;5025401;28;20068;-77
2022/09/07 01:22:52;;;;;;;8.23;3.70;;;;;;;;;;5024224;28;20286;-77
2022/09/07 01:25:29;;;;;;;8.47;3.27;;;;;;;;;;5024607;28;20467;-77
2022/09/07 01:28:19;;;;;;;7.07;3.72;;;;;;;18.21;100.00;68793.41;5025868;28;20269;-77
2022/09/07 01:30:56;;;;;;;5.70;3.63;;;;;;;18.28;100.00;68808.91;5022372;28;20037;-78
2022/09/07 01:33:53;;;;;;;5.60;3.70;;;;;;;18.23;100.00;68801.06;5027196;28;20129;-77
2022/09/07 01:36:32;;;;;;;6.65;3.78;;;;;;;18.24;100.00;68802.22;5038013;28;20053;-78
2022/09/07 01:38:58;;;;;;;7.47;4.93;;;;;;;;;;5026282;28;20107;-78
2022/09/07 01:41:28;;;;;;;8.88;4.88;;;;;;;18.14;100.00;68790.78;5025892;28;20056;-78
2022/09/07 01:44:06;;;;;;;5.93;4.30;;;;;;;18.14;100.00;68792.91;5017270;28;20132;-78
2022/09/07 01:46:42;;;;;;;7.93;5.18;;;;;;;18.06;100.00;68781.06;5023674;28;20077;-78
2022/09/07 01:49:16;;;;;;;7.60;5.00;;;;;;;18.13;100.00;68789.09;5033491;28;20046;-78
2022/09/07 01:51:46;;;;;;;7.63;5.28;;;;;;;18.18;100.00;68794.78;5027652;28;20041;-78
2022/09/07 01:54:21;;;;;;;9.40;5.57;;;;;;;18.14;100.00;68790.78;5028119;28;20124;-77
2022/09/07 01:56:48;;;;;;;8.30;5.80;;;;;;;;;;5027145;28;20037;-77
2022/09/07 01:59:20;;;;;;;11.20;5.07;;;;;;;18.08;100.00;68783.94;5029734;28;20045;-78
2022/09/07 02:01:51;;;;;;;8.95;5.65;;;;;;;18.00;100.00;68774.81;5026326;28;20048;-78
2022/09/07 02:04:18;;;;;;;10.85;6.45;;;;;;;;;;5025580;28;20120;-77
2022/09/07 02:06:54;;;;;;;9.98;7.07;;;;;;;;;;5028772;28;20100;-78
2022/09/07 02:09:26;;;;;;;8.52;6.57;;;;;;;;;;5029320;28;20041;-77
2022/09/07 02:11:52;;;;;;;9.52;7.50;;;;;;;;;;5025831;28;20689;-78
2022/09/07 02:14:23;;;;;;;8.73;6.85;;;;;;;17.99;100.00;68773.66;5049862;22;20048;-78
2022/09/07 02:16:58;;;;;;;9.93;6.57;;;;;;;17.97;100.00;68766.56;5011762;28;20037;-78
2022/09/07 02:19:28;;;;;;;10.90;7.55;;;;;;;17.96;100.00;68773.50;5011219;28;20042;-78
2022/09/07 02:21:59;;;;;;;9.13;7.50;;;;;;;17.91;100.00;68759.16;5012899;28;20053;-78
2022/09/07 02:24:30;;;;;;;9.02;7.05;;;;;;;17.85;100.00;68758.25;5012256;28;20447;-79
2022/09/07 02:26:58;;;;;;;9.55;7.05;;;;;;;17.82;100.00;68754.84;5001394;28;20521;-79
2022/09/07 02:29:23;;;;;;;10.95;7.78;;;;;;;17.78;100.00;68750.84;4992688;28;20161;-78
2022/09/07 02:31:50;;;;;;;12.80;8.25;;;;;;;17.77;100.00;68749.66;5002264;28;20141;-78
2022/09/07 02:34:15;;;;;;;12.32;7.53;;;;;;;17.70;100.00;68747.06;5007172;28;20045;-79
2022/09/07 02:36:45;;;;;;;8.63;6.90;;;;;;;17.64;100.00;68737.53;4990935;28;20039;-77
2022/09/07 02:39:11;;;;;;;11.45;7.70;;;;;;;17.49;100.00;68717.72;5012050;28;20568;-78
2022/09/07 02:41:39;;;;;;;9.90;8.50;;;;;;;17.53;100.00;68727.66;5013577;28;20124;-77
2022/09/07 02:44:12;;;;;;;10.80;8.47;;;;;;;17.49;100.00;68717.72;5011209;28;20046;-78
2022/09/07 02:46:47;;;;;;;15.43;9.13;;;;;;;17.47;100.00;68718.69;5007312;28;20092;-78
2022/09/07 02:49:34;;;;;;;10.57;9.20;;;;;;;17.37;100.00;68705.16;5001813;28;20059;-78
2022/09/07 02:52:14;;;;;;;11.35;9.00;;;;;;;17.32;100.00;68699.47;4974069;28;20150;-78
2022/09/07 02:55:10;;;;;;;13.57;9.15;;;;;;;17.24;100.00;68684.97;4974215;28;20074;-78
2022/09/07 02:58:03;;;;;;;12.95;10.00;;;;;;;17.24;100.00;68684.97;5001201;28;20505;-78
2022/09/07 03:00:38;;;;;;;14.18;9.95;;;;;;;17.15;100.00;68680.06;4997083;28;20395;-78
2022/09/07 03:03:22;;;;;;;13.77;10.70;;;;;;;17.13;100.00;68672.97;4973612;28;20038;-77
2022/09/07 03:06:26;;;;;;;15.30;11.45;;;;;;;17.09;100.00;68668.41;4988687;28;20030;-78
2022/09/07 03:08:54;;;;;;;14.60;10.95;;;;;;;16.97;100.00;68660.09;4996838;28;20038;-78
2022/09/07 03:11:21;;;;;;;14.80;11.55;;;;;;;16.94;100.00;68658.78;4994114;28;20047;-78
2022/09/07 03:13:46;;;;;;;15.48;12.20;;;;;;;16.88;100.00;68649.84;4994846;28;20049;-78
2022/09/07 03:16:15;;;;;;;17.48;12.68;;;;;;;16.90;100.00;68652.69;4990376;28;20045;-78
2022/09/07 03:18:42;;;;;;;14.60;12.38;;;;;;;16.87;100.00;68648.69;4992302;28;20046;-78
2022/09/07 03:21:08;;;;;;;17.05;12.43;;;;;;;16.85;100.00;68646.41;4992715;28;20042;-78
2022/09/07 03:23:34;;;;;;;14.68;11.40;;;;;;;;;;4979316;28;20039;-78
2022/09/07 03:25:59;;;;;;;24.05;13.32;;;;;;;16.81;100.00;68642.44;4978187;28;20049;-78
2022/09/07 03:28:25;;;;;;;15.90;12.85;;;;;;;;;;5004027;28;20073;-78
2022/09/07 03:30:50;;;;;;;15.60;12.43;;;;;;;16.75;100.00;68629.63;4996495;28;20038;-78
2022/09/07 03:33:16;;;;;;;14.93;11.52;;;;;;;16.74;100.00;68636.53;4999304;28;20293;-78
2022/09/07 03:35:45;;;;;;;16.67;12.38;;;;;;;;;;4991617;28;20109;-78
2022/09/07 03:38:10;;;;;;;;;;;;;;;16.57;100.00;68615.03;5006866;28;20041;-78
2022/09/07 03:40:35;;;;;;;15.68;11.73;;;;;;;;;;5004387;28;20340;-78
2022/09/07 03:43:01;;;;;;;16.88;13.20;;;;;;;;;;4991320;28;20121;-78
2022/09/07 03:45:26;;;;;;;17.25;12.90;;;;;;;16.54;100.00;68617.56;4989929;28;20058;-78
2022/09/07 03:47:52;;;;;;;14.63;13.00;;;;;;;16.56;100.00;68614.47;4992477;28;20062;-78
2022/09/07 03:50:17;;;;;;;14.77;12.30;;;;;;;16.59;100.00;68622.69;5001606;28;20042;-78
2022/09/07 03:52:43;;;;;;;14.23;12.00;;;;;;;16.53;100.00;68613.72;4981047;28;20042;-78
2022/09/07 03:55:08;;;;;;;14.80;10.52;;;;;;;16.53;100.00;68613.72;4995778;28;20042;-78
2022/09/07 03:57:34;;;;;;;15.77;12.68;;;;;;;16.53;100.00;68611.03;4988728;28;20039;-78
2022/09/07 03:59:59;;;;;;;16.15;12.80;;;;;;;16.56;100.00;68614.47;4984324;28;20042;-78
2022/09/07 04:02:24;;;;;;;15.30;12.18;;;;;;;16.47;100.00;68604.78;4991356;28;20042;-78
2022/09/07 04:04:50;;;;;;;18.95;12.82;;;;;;;16.50;100.00;68607.63;4990675;28;20531;-78
2022/09/07 04:07:15;;;;;;;17.95;13.07;;;;;;;16.45;100.00;68605.16;4988430;28;20053;-78
2022/09/07 04:09:41;;;;;;;19.25;12.98;;;;;;;16.39;100.00;68601.03;4979798;28;20042;-78
2022/09/07 04:12:06;;;;;;;15.80;12.73;;;;;;;;;;4993560;28;20042;-78
2022/09/07 04:14:31;;;;;;;17.85;13.73;;;;;;;;;;4990834;28;20042;-79
2022/09/07 04:16:57;;;;;;;17.00;13.77;;;;;;;16.42;100.00;68598.50;4992095;28;20038;-78
2022/09/07 04:19:22;;;;;;;16.50;12.50;;;;;;;16.37;100.00;68592.78;4990745;28;20039;-78
2022/09/07 04:21:48;;;;;;;14.73;12.30;;;;;;;;;;4990144;28;20042;-79
2022/09/07 04:24:14;;;;;;;17.52;13.15;;;;;;;16.37;100.00;68598.16;4997605;28;20042;-78
2022/09/07 04:26:42;;;;;;;17.92;14.52;;;;;;;16.39;100.00;68589.72;4990886;28;20308;-79
2022/09/07 04:29:08;;;;;;;18.63;13.85;;;;;;;16.43;100.00;68605.59;4989468;28;20137;-78
2022/09/07 04:31:34;;;;;;;20.10;13.48;;;;;;;;;;4985369;28;20105;-78
2022/09/07 04:34:00;;;;;;;18.33;14.05;;;;;;;16.38;100.00;68593.94;4986209;28;20192;-78
2022/09/07 04:36:26;;;;;;;19.95;14.15;;;;;;;;;;5002739;28;20038;-78
2022/09/07 04:39:03;;;;;;;18.10;14.43;;;;;;;16.37;100.00;68593.38;5005433;28;20407;-79
2022/09/07 04:41:30;;;;;;;22.02;15.52;;;;;;;16.42;100.00;68598.50;4993407;28;20042;-79
2022/09/07 04:44:00;;;;;;;18.30;14.85;;;;;;;16.49;100.00;68606.50;4998304;28;20190;-78
2022/09/07 04:46:30;;;;;;;20.50;15.40;;;;;;;;;;4993094;28;20045;-79
2022/09/07 04:48:57;;;;;;;21.17;15.52;;;;;;;16.40;100.00;68596.22;4985626;28;20465;-78
2022/09/07 04:51:25;;;;;;;22.52;16.60;;;;;;;16.40;100.00;68602.19;4987651;28;20042;-77
2022/09/07 04:53:55;;;;;;;20.45;16.10;;;;;;;16.41;100.00;68600.06;4977710;28;20047;-77
2022/09/07 04:56:21;;;;;;;22.40;15.77;;;;;;;16.30;100.00;68585.38;4992158;28;20485;-77
2022/09/07 04:58:47;;;;;;;23.40;17.85;;;;;;;16.31;100.00;68586.53;4999667;28;20038;-77
2022/09/07 05:01:16;;;;;;;22.88;18.33;;;;;;;16.35;100.00;68591.09;4991373;28;20053;-77
2022/09/07 05:03:42;;;;;;;23.08;17.77;;;;;;;16.41;100.00;68597.94;4996309;28;20470;-77
2022/09/07 05:06:08;;;;;;;20.30;16.63;;;;;;;;;;4996249;28;20179;-78
2022/09/07 05:08:40;;;;;;;22.38;17.98;;;;;;;;;;5009489;28;20128;-78
2022/09/07 05:11:06;;;;;;;21.55;16.55;;;;;;;16.29;100.00;68584.25;5000218;28;20038;-77
2022/09/07 05:13:32;;;;;;;22.80;17.58;;;;;;;16.26;100.00;68575.47;4994087;28;20057;-78
2022/09/07 05:15:58;;;;;;;23.67;18.25;;;;;;;16.29;100.00;68586.94;4986733;28;20502;-78
2022/09/07 05:18:24;;;;;;;23.00;18.17;;;;;;;16.30;100.00;68590.19;5003924;28;20120;-77
2022/09/07 05:20:50;;;;;;;27.10;19.80;;;;;;;16.29;100.00;68589.63;5003309;28;20545;-77
2022/09/07 05:23:15;;;;;;;28.15;20.58;;;;;;;16.33;100.00;68588.81;4990512;28;20038;-77
2022/09/07 05:25:45;;;;;;;25.00;18.33;;;;;;;16.39;100.00;68601.03;5006439;28;20026;-78
2022/09/07 05:28:12;;;;;;;26.88;22.02;;;;;;;16.44;100.00;68601.34;5002552;28;20081;-77
2022/09/07 05:30:38;;;;;;;24.63;19.90;;;;;;;16.50;100.00;68607.06;4990999;28;20127;-77
2022/09/07 05:33:04;;;;;;;24.00;19.63;;;;;;;16.53;100.00;68610.47;4996266;28;20168;-77
2022/09/07 05:35:29;;;;;;;23.63;20.88;;;;;;;16.56;100.00;68613.91;5002634;28;20045;-77
2022/09/07 05:37:55;;;;;;;24.00;18.85;;;;;;;16.62;100.00;68621.31;4998860;28;20422;-77
2022/09/07 05:40:21;;;;;;;24.88;21.25;;;;;;;16.68;100.00;68627.56;4999590;28;20087;-78
2022/09/07 05:42:46;;;;;;;27.30;21.80;;;;;;;;;;5004064;28;20050;-78
2022/09/07 05:45:12;;;;;;;28.10;23.15;;;;;;;16.79;100.00;68640.13;5007629;28;20471;-78
2022/09/07 05:47:38;;;;;;;29.38;23.40;;;;;;;16.87;100.00;68648.69;5004199;28;20049;-78
2022/09/07 05:50:04;;;;;;;29.90;22.65;;;;;;;;;;5002708;28;20046;-77
2022/09/07 05:52:30;;;;;;;31.95;24.70;;;;;;;16.97;100.00;68659.53;4986820;28;20413;-77
2022/09/07 05:54:55;;;;;;;34.33;25.17;;;;;;;16.97;100.00;68654.16;5004907;28;20046;-78
2022/09/07 05:57:20;;;;;;;31.33;24.77;;;;;;;16.98;100.00;68655.31;5004731;28;20050;-78
2022/09/07 05:59:46;;;;;;;30.90;23.55;;;;;;;16.91;100.00;68653.81;4986971;28;20085;-78
2022/09/07 06:02:14;;;;;;;31.65;26.35;;;;;;;;;;4987513;28;20461;-78
2022/09/07 06:04:40;;;;;;;33.75;25.45;;;;;;;16.94;100.00;68651.28;4989918;28;21262;-77
2022/09/07 06:07:07;;;;;;;37.03;26.92;;;;;;;17.03;100.00;68666.97;4999974;28;20493;-78
2022/09/07 06:09:32;;;;;;;32.67;27.60;;;;;;;17.10;100.00;68677.06;4986122;28;20056;-78
2022/09/07 06:11:58;;;;;;;36.83;27.42;;;;;;;17.08;100.00;68672.66;4984225;28;20137;-77
2022/09/07 06:14:23;;;;;;;34.13;26.35;;;;;;;17.05;100.00;68668.66;4997740;28;20038;-78
2022/09/07 06:16:49;;;;;;;31.52;21.98;;;;;;;17.03;100.00;68655.63;4987633;28;20130;-77
2022/09/07 06:19:14;;;;;;;31.73;24.45;;;;;;;17.03;100.00;68666.38;4993277;28;20038;-77
2022/09/07 06:21:40;;;;;;;31.00;23.38;;;;;;;17.07;100.00;68662.88;5002294;28;20100;-77
2022/09/07 06:24:05;;;;;;;31.55;25.45;;;;;;;17.16;100.00;68683.91;4992056;28;20539;-78
2022/09/07 06:26:31;;;;;;;32.95;25.38;;;;;;;17.13;100.00;68677.78;4995019;28;20100;-77
2022/09/07 06:28:56;;;;;;;36.20;24.90;;;;;;;17.11;100.00;68675.50;5007936;28;20441;-78
2022/09/07 06:31:23;;;;;;;33.17;23.75;;;;;;;;;;4998571;28;20108;-78
2022/09/07 06:33:49;;;;;;;36.17;26.75;;;;;;;17.29;100.00;68695.47;5004186;28;20042;-77
2022/09/07 06:36:28;;;;;;;32.05;26.27;;;;;;;17.34;100.00;68695.78;5000185;28;20038;-78
2022/09/07 06:38:54;;;;;;;;;;;;;;;;;;5005457;28;20504;-78
2022/09/07 06:41:24;;;;;;;34.28;25.55;;;;;;;17.33;100.00;68700.59;5002359;28;19917;-78
2022/09/07 06:43:50;;;;;;;29.98;22.90;;;;;;;;;;4989283;28;20053;-78
2022/09/07 06:46:16;;;;;;;30.75;26.45;;;;;;;17.45;100.00;68708.34;5002119;28;20522;-77
2022/09/07 06:48:41;;;;;;;27.20;23.17;;;;;;;;;;5005088;28;20410;-78
2022/09/07 06:51:09;;;;;;;27.90;22.73;;;;;;;;;;4986006;28;20042;-78
2022/09/07 06:53:36;;;;;;;28.00;22.70;;;;;;;17.45;100.00;68713.72;5001898;28;20493;-78
2022/09/07 06:56:05;;;;;;;29.55;23.63;;;;;;;17.42;100.00;68709.72;5005330;28;20122;-78
2022/09/07 06:58:30;;;;;;;;;;;;;;;;;;5002118;28;20133;-77
2022/09/07 07:00:55;;;;;;;28.30;20.55;;;;;;;17.31;100.00;68703.69;4990032;28;20012;-78
2022/09/07 07:03:21;;;;;;;28.60;22.42;;;;;;;;;;4994198;28;20037;-78
2022/09/07 07:05:53;;;;;;;29.02;22.98;;;;;;;;;;5006690;28;20038;-78
2022/09/07 07:08:21;;;;;;;27.10;21.38;;;;;;;17.55;100.00;68724.56;4991110;28;20054;-78
2022/09/07 07:10:47;;;;;;;27.23;21.30;;;;;;;17.58;100.00;68723.19;4997587;28;20056;-78
2022/09/07 07:13:12;;;;;;;24.77;19.83;;;;;;;17.52;100.00;68716.34;4988630;28;20050;-78
2022/09/07 07:15:37;;;;;;;25.60;22.38;;;;;;;17.67;100.00;68743.66;5004568;28;20104;-79
2022/09/07 07:18:03;;;;;;;26.05;21.23;;;;;;;17.70;100.00;68741.69;5008089;28;20058;-78
2022/09/07 07:20:29;;;;;;;26.20;20.90;;;;;;;17.75;100.00;68746.81;4997760;28;20417;-78
2022/09/07 07:22:54;;;;;;;23.33;20.00;;;;;;;;;;4997894;28;20034;-78
2022/09/07 07:25:20;;;;;;;23.00;20.50;;;;;;;17.83;100.00;68758.66;4987430;28;20046;-78
2022/09/07 07:27:46;;;;;;;21.48;19.17;;;;;;;17.78;100.00;68750.84;4997849;28;20052;-77
2022/09/07 07:30:13;;;;;;;21.92;16.90;;;;;;;17.88;100.00;68761.69;5007451;28;20038;-77
2022/09/07 07:32:38;;;;;;;22.73;18.90;;;;;;;;;;4989017;28;20138;-78
2022/09/07 07:35:06;;;;;;;21.85;17.67;;;;;;;18.07;100.00;68782.81;4999160;28;20472;-77
2022/09/07 07:37:31;;;;;;;20.20;16.73;;;;;;;18.09;100.00;68787.19;4995602;28;20073;-79
2022/09/07 07:39:57;;;;;;;22.67;17.02;;;;;;;18.19;100.00;68791.09;4993887;28;20073;-77
2022/09/07 07:42:23;;;;;;;24.65;18.42;;;;;;;18.25;100.00;68805.47;5010365;28;20129;-77
2022/09/07 07:44:48;;;;;;;19.58;16.63;;;;;;;;;;5001160;28;20069;-78
2022/09/07 07:47:13;;;;;;;20.52;15.93;;;;;;;;;;5010269;28;20064;-78
2022/09/07 07:49:38;;;;;;;19.38;15.55;;;;;;;;;;4989882;28;20043;-77
2022/09/07 07:52:05;;;;;;;21.17;15.77;;;;;;;18.52;100.00;68827.63;4972828;28;20550;-78
2022/09/07 07:54:32;;;;;;;20.48;15.70;;;;;;;;;;4973752;28;20049;-78
2022/09/07 07:56:57;;;;;;;19.48;16.95;;;;;;;18.62;100.00;68843.88;4991162;28;20038;-78
2022/09/07 07:59:22;;;;;;;19.33;15.43;;;;;;;18.59;100.00;68841.03;4990851;28;20043;-78
2022/09/07 08:01:48;;;;;;;19.05;15.55;;;;;;;;;;4992222;28;20034;-77
2022/09/07 08:04:13;;;;;;;17.80;14.05;;;;;;;;;;4990499;28;20046;-77
2022/09/07 08:06:41;;;;;;;19.95;15.57;;;;;;;18.79;100.00;68863.31;4997377;28;20034;-77
2022/09/07 08:09:07;;;;;;;17.30;14.25;;;;;;;18.82;100.00;68860.78;5004019;28;20053;-78
2022/09/07 08:11:34;;;;;;;18.80;14.35;;;;;;;18.82;100.00;68866.19;5012075;28;20073;-78
2022/09/07 08:14:01;;;;;;;17.08;13.70;;;;;;;18.82;100.00;68866.75;4999249;28;20066;-78
2022/09/07 08:16:26;;;;;;;16.13;13.80;;;;;;;18.83;100.00;68867.88;5049445;22;20440;-86
2022/09/07 08:18:52;;;;;;;16.58;13.95;;;;;;;18.84;100.00;68869.03;5036522;28;20053;-86
2022/09/07 08:21:17;;;;;;;16.77;13.07;;;;;;;;;;5045105;28;20036;-86
2022/09/07 08:23:43;;;;;;;17.77;13.68;;;;;;;;;;5039975;28;20044;-85
2022/09/07 08:26:09;;;;;;;18.17;13.23;;;;;;;18.97;100.00;68877.91;5045477;28;20044;-86
2022/09/07 08:28:37;;;;;;;19.45;12.85;;;;;;;18.99;100.00;68885.59;5045633;28;20044;-86
2022/09/07 08:31:05;;;;;;;14.13;11.68;;;;;;;19.06;100.00;68893.59;5046803;28;20511;-86
2022/09/07 08:33:30;;;;;;;16.48;11.85;;;;;;;;;;5034349;28;20041;-87
2022/09/07 08:35:58;;;;;;;13.60;12.18;;;;;;;19.42;100.00;68928.19;5036383;28;20095;-85
2022/09/07 08:38:24;;;;;;;13.63;10.98;;;;;;;19.49;100.00;68941.56;5045838;28;20048;-86
2022/09/07 08:40:49;;;;;;;13.82;10.82;;;;;;;19.40;100.00;68931.28;5028570;28;20041;-86
2022/09/07 08:43:27;;;;;;;13.23;10.00;;;;;;;19.34;100.00;68925.00;5025645;28;20552;-87
2022/09/07 08:45:59;;;;;;;14.00;12.00;;;;;;;19.33;100.00;68925.97;5027251;28;20037;-87
2022/09/07 08:48:28;;;;;;;16.58;12.48;;;;;;;;;;5041784;28;20458;-86
2022/09/07 08:51:08;;;;;;;;;;;;;;;19.46;100.00;68937.59;5028304;28;20499;-86
2022/09/07 08:53:38;;;;;;;15.05;11.30;;;;;;;19.39;100.00;68930.72;5029608;28;19924;-86
2022/09/07 08:56:10;;;;;;;16.48;13.05;;;;;;;19.43;100.00;68934.16;5038704;28;20061;-86
2022/09/07 08:58:46;;;;;;;18.63;13.00;;;;;;;19.46;100.00;68938.16;5026900;28;20037;-85
2022/09/07 09:01:16;;;;;;;14.02;12.50;;;;;;;19.52;100.00;68947.69;5029405;28;20222;-86
2022/09/07 09:03:42;;;;;;;14.60;12.48;;;;;;;;;;5043097;28;20436;-85
2022/09/07 09:06:33;;;;;;;15.90;12.07;;;;;;;19.42;100.00;68933.59;5034405;28;20168;-84
2022/09/07 09:09:23;;;;;;;20.63;14.10;;;;;;;19.39;100.00;68930.72;5038002;28;20036;-85
2022/09/07 09:11:49;;;;;;;17.48;14.50;;;;;;;19.50;100.00;68944.84;5027600;28;20045;-86
2022/09/07 09:14:27;;;;;;;16.48;14.32;;;;;;;19.51;100.00;68943.88;5028121;28;20040;-87
2022/09/07 09:17:01;;;;;;;18.13;14.48;;;;;;;;;;5045131;28;20037;-88
2022/09/07 09:20:08;;;;;;;18.83;13.98;;;;;;;19.63;100.00;68951.03;5017707;28;20041;-87
2022/09/07 09:22:34;;;;;;;18.83;14.45;;;;;;;;;;5019525;28;20043;-88
2022/09/07 09:25:13;;;;;;;18.38;14.55;;;;;;;19.55;100.00;68948.44;5024244;28;20192;-88
2022/09/07 09:27:38;;;;;;;20.80;15.90;;;;;;;;;;5032090;28;20045;-88
2022/09/07 09:30:21;;;;;;;19.73;14.05;;;;;;;19.50;100.00;68942.16;5018869;28;20071;-88
2022/09/07 09:32:48;;;;;;;20.35;15.13;;;;;;;;;;5020573;28;20045;-87
2022/09/07 09:35:37;;;;;;;19.60;16.23;;;;;;;19.40;100.00;68931.28;5021133;28;20045;-87
2022/09/07 09:38:02;;;;;;;23.23;19.33;;;;;;;;;;5018382;28;20037;-88
2022/09/07 09:40:34;;;;;;;22.17;19.50;;;;;;;19.54;100.00;68947.28;5016453;28;20111;-87
2022/09/07 09:43:19;;;;;;;24.00;17.83;;;;;;;;;;5023564;28;20044;-87
2022/09/07 09:45:46;;;;;;;26.27;19.20;;;;;;;;;;5031532;28;20065;-85
2022/09/07 09:48:19;;;;;;;21.77;19.27;;;;;;;19.63;100.00;68951.03;5016082;28;20041;-86
2022/09/07 09:50:51;;;;;;;22.30;19.90;;;;;;;19.78;100.00;68973.59;5027284;28;20108;-86
2022/09/07 09:53:22;;;;;;;23.70;19.00;;;;;;;;;;5032040;28;20496;-86
2022/09/07 09:55:50;;;;;;;25.38;20.42;;;;;;;19.86;100.00;68977.34;5029333;28;20400;-86
2022/09/07 09:58:37;;;;;;;27.05;19.25;;;;;;;19.86;100.00;68985.44;5027127;28;20048;-86
2022/09/07 10:01:05;;;;;;;24.85;20.67;;;;;;;19.89;100.00;68977.50;5034335;28;20044;-86
2022/09/07 10:03:33;;;;;;;25.33;22.45;;;;;;;19.90;100.00;68981.91;5036552;28;20405;-86
2022/09/07 10:06:03;;;;;;;26.13;20.92;;;;;;;19.87;100.00;68978.47;5042289;28;20106;-86
2022/09/07 10:08:37;;;;;;;24.92;21.27;;;;;;;19.90;100.00;68981.91;5029709;28;20040;-86
2022/09/07 10:11:08;;;;;;;22.10;19.33;;;;;;;19.82;100.00;68970.06;5016411;28;20428;-86
2022/09/07 10:13:38;;;;;;;22.40;17.88;;;;;;;19.80;100.00;68970.50;5012032;28;20034;-86
2022/09/07 10:16:05;;;;;;;26.33;21.38;;;;;;;19.81;100.00;68977.03;5037608;28;20099;-86
2022/09/07 10:18:33;;;;;;;24.38;19.80;;;;;;;;;;5042368;28;20510;-86
2022/09/07 10:21:16;;;;;;;24.80;20.50;;;;;;;;;;5031511;28;20106;-86
2022/09/07 10:23:41;;;;;;;25.55;21.27;;;;;;;;;;5023932;28;20038;-86
2022/09/07 10:26:21;;;;;;;25.13;22.42;;;;;;;;;;5045177;28;20054;-86
2022/09/07 10:28:46;;;;;;;23.67;18.55;;;;;;;20.31;99.19;69032.47;5039691;28;20044;-86
2022/09/07 10:31:26;;;;;;;25.15;20.33;;;;;;;20.27;98.80;69023.63;5047453;28;20415;-86
2022/09/07 10:34:01;;;;;;;27.17;21.92;;;;;;;20.35;99.02;69032.22;5029864;28;20048;-86
2022/09/07 10:36:37;;;;;;;24.95;21.58;;;;;;;;;;4994925;28;20166;-86
2022/09/07 10:39:12;;;;;;;22.67;20.02;;;;;;;20.42;98.37;69045.06;4981221;28;20059;-87
2022/09/07 10:41:51;;;;;;;27.30;23.35;;;;;;;20.48;97.89;69046.50;5002092;28;20819;-86
2022/09/07 10:44:37;;;;;;;25.63;20.10;;;;;;;20.48;98.48;69052.50;4953041;28;20129;-86
2022/09/07 10:47:36;;;;;;;27.45;21.38;;;;;;;20.52;98.79;69056.50;4970356;28;20072;-86
2022/09/07 10:50:08;;;;;;;27.50;23.17;;;;;;;20.55;98.89;69053.97;4970084;28;20121;-86
2022/09/07 10:52:48;;;;;;;25.65;22.73;;;;;;;20.69;98.51;69075.38;4996584;28;20137;-84
2022/09/07 10:55:16;;;;;;;28.13;25.23;;;;;;;;;;4977804;28;20093;-86
2022/09/07 10:58:00;;;;;;;28.88;23.10;;;;;;;20.65;96.61;69065.41;4976771;28;20038;-86
2022/09/07 11:00:35;;;;;;;26.88;21.45;;;;;;;20.64;95.81;69062.13;4973087;28;20035;-87
2022/09/07 11:03:10;;;;;;;26.75;22.20;;;;;;;20.80;96.31;69082.56;5040001;28;20101;-86
2022/09/07 11:06:09;;;;;;;28.00;23.17;;;;;;;20.78;94.77;69079.69;5037727;28;20069;-86
2022/09/07 11:09:08;;;;;;;28.75;21.48;;;;;;;20.70;95.33;69077.09;5033185;28;20045;-86
2022/09/07 11:11:43;;;;;;;27.00;24.08;;;;;;;20.85;94.89;69096.38;5036768;28;20063;-89
2022/09/07 11:14:14;;;;;;;26.30;23.45;;;;;;;21.04;94.28;69114.28;5033766;28;20033;-87
2022/09/07 11:16:50;;;;;;;26.77;22.75;;;;;;;21.15;94.93;69121.47;5034814;28;20056;-86
2022/09/07 11:19:21;;;;;;;25.73;22.92;;;;;;;20.88;93.26;69097.09;5041883;28;20113;-87
2022/09/07 11:22:02;;;;;;;26.90;23.98;;;;;;;20.76;93.10;69077.41;5042579;28;20507;-87
2022/09/07 11:24:35;;;;;;;31.77;23.70;;;;;;;20.68;93.70;69074.81;5025165;28;20064;-85
2022/09/07 11:27:05;;;;;;;27.60;22.27;;;;;;;;;;5039914;28;20040;-85
2022/09/07 11:29:42;;;;;;;28.92;25.92;;;;;;;20.83;94.87;69086.00;5042310;28;20038;-86
2022/09/07 11:32:19;;;;;;;30.25;26.00;;;;;;;;;;5017404;28;20052;-86
2022/09/07 11:34:50;;;;;;;30.27;27.02;;;;;;;20.93;94.14;69097.41;5028967;28;20045;-84
2022/09/07 11:37:25;;;;;;;30.77;26.73;;;;;;;20.93;91.98;69091.44;5032392;28;20036;-85
2022/09/07 11:40:12;;;;;;;32.03;26.00;;;;;;;20.83;92.09;69083.28;5033438;28;20129;-86
2022/09/07 11:42:48;;;;;;;28.88;24.23;;;;;;;20.84;93.03;69087.13;5028670;28;20064;-86
2022/09/07 11:45:32;;;;;;;28.48;25.38;;;;;;;21.06;92.74;69111.16;5029417;28;20111;-86
2022/09/07 11:48:50;;;;;;;28.40;25.30;;;;;;;21.44;91.38;69153.53;5027994;28;20136;-86
2022/09/07 11:51:19;;;;;;;27.20;24.40;;;;;;;21.48;89.17;69155.94;5007225;28;20081;-88
2022/09/07 11:54:12;;;;;;;28.35;25.45;;;;;;;21.52;89.48;69160.53;5010841;28;20041;-88
2022/09/07 11:56:40;;;;;;;28.48;24.83;;;;;;;21.61;88.29;69173.53;4978739;28;20049;-88
2022/09/07 11:59:47;;;;;;;27.38;24.50;;;;;;;21.90;87.55;69205.03;5046400;28;20026;-88
2022/09/07 12:02:28;;;;;;;27.05;24.15;;;;;;;22.03;86.36;69219.88;5043496;28;20100;-88
2022/09/07 12:05:15;;;;;;;26.35;23.10;;;;;;;21.98;85.18;69214.75;5046108;28;20119;-88
2022/09/07 12:07:54;;;;;;;26.52;23.42;;;;;;;21.82;85.95;69196.44;5028360;28;20072;-88
2022/09/07 12:10:47;;;;;;;26.27;23.48;;;;;;;;;;5034562;28;20080;-88